createdAt,value
2024-04-09T00:01:46.831Z,1.30
2024-04-09T00:04:16.584Z,1.40
2024-04-09T00:06:46.810Z,0.90
2024-04-09T00:09:22.067Z,1.30
2024-04-09T00:11:54.538Z,1.50
2024-04-09T00:14:25.847Z,1.60
2024-04-09T00:16:56.541Z,1.10
2024-04-09T00:19:26.308Z,1.10
2024-04-09T00:21:56.031Z,1.10
2024-04-09T00:24:26.843Z,1.20
2024-04-09T00:26:59.267Z,1.90
2024-04-09T00:29:29.238Z,1.30
2024-04-09T00:31:58.869Z,1.20
2024-04-09T00:34:28.456Z,1.20
2024-04-09T00:36:58.985Z,1.40
2024-04-09T00:39:28.933Z,0.90
2024-04-09T00:41:58.574Z,1.70
2024-04-09T00:44:32.545Z,1.70
2024-04-09T00:47:05.367Z,1.10
2024-04-09T00:49:35.136Z,1.40
2024-04-09T00:52:06.031Z,1.10
2024-04-09T00:54:39.594Z,1.30
2024-04-09T00:57:09.612Z,1.40
2024-04-09T00:59:40.052Z,1.10
2024-04-09T01:02:10.754Z,1.50
2024-04-09T01:04:41.251Z,1.60
2024-04-09T01:07:11.129Z,1.50
2024-04-09T01:09:44.052Z,1.40
2024-04-09T01:12:13.652Z,1.20
2024-04-09T01:14:43.933Z,1.50
2024-04-09T01:17:13.659Z,0.90
2024-04-09T01:19:43.190Z,1.70
2024-04-09T01:22:12.659Z,1.30
2024-04-09T01:24:42.356Z,1.70
2024-04-09T01:27:15.827Z,1.60
2024-04-09T01:29:50.471Z,1.50
2024-04-09T01:34:52.131Z,1.60
2024-04-09T01:37:21.831Z,1.70
2024-04-09T01:39:51.404Z,1.60
2024-04-09T01:42:21.070Z,2.10
2024-04-09T01:44:51.023Z,1.60
2024-04-09T01:47:20.558Z,1.20
2024-04-09T01:49:50.048Z,1.00
2024-04-09T01:52:20.962Z,0.90
2024-04-09T01:54:50.548Z,1.20
2024-04-09T01:57:20.051Z,1.10
2024-04-09T01:59:49.649Z,1.30
2024-04-09T02:02:21.845Z,1.20
2024-04-09T02:04:54.642Z,1.30
2024-04-09T02:07:26.648Z,1.50
2024-04-09T02:09:56.089Z,1.00
2024-04-09T02:12:25.638Z,0.90
2024-04-09T02:14:55.173Z,1.10
2024-04-09T02:17:26.662Z,1.60
2024-04-09T02:19:56.126Z,1.00
2024-04-09T02:22:25.955Z,2.00
2024-04-09T02:24:58.107Z,1.30
2024-04-09T02:27:29.840Z,1.30
2024-04-09T02:30:00.636Z,1.50
2024-04-09T02:32:30.898Z,1.90
2024-04-09T02:35:02.279Z,1.70
2024-04-09T02:37:34.512Z,1.50
2024-04-09T02:40:08.867Z,2.10
2024-04-09T02:42:40.805Z,1.70
2024-04-09T02:45:13.055Z,1.60
2024-04-09T02:47:45.075Z,2.10
2024-04-09T02:50:17.398Z,1.60
2024-04-09T02:52:50.524Z,1.70
2024-04-09T02:55:20.035Z,1.50
2024-04-09T02:57:50.645Z,1.70
2024-04-09T03:00:21.057Z,1.20
2024-04-09T03:02:54.722Z,1.30
2024-04-09T03:05:31.501Z,1.20
2024-04-09T03:08:01.198Z,1.10
2024-04-09T03:10:35.413Z,1.20
2024-04-09T03:13:05.358Z,1.20
2024-04-09T03:15:38.339Z,1.30
2024-04-09T03:18:11.422Z,1.30
2024-04-09T03:20:41.677Z,1.10
2024-04-09T03:23:13.650Z,1.30
2024-04-09T03:25:43.034Z,1.00
2024-04-09T03:28:12.549Z,1.10
2024-04-09T03:30:42.229Z,1.10
2024-04-09T03:33:11.917Z,1.00
2024-04-09T03:35:50.626Z,0.90
2024-04-09T03:38:20.120Z,1.00
2024-04-09T03:40:55.910Z,0.90
2024-04-09T03:43:25.374Z,0.90
2024-04-09T03:46:04.450Z,0.80
2024-04-09T03:48:34.256Z,0.90
2024-04-09T03:51:05.265Z,0.80
2024-04-09T03:53:37.510Z,1.10
2024-04-09T03:56:11.368Z,1.20
2024-04-09T03:58:42.704Z,0.90
2024-04-09T04:01:14.431Z,0.90
2024-04-09T04:03:46.104Z,0.70
2024-04-09T04:06:16.604Z,0.90
2024-04-09T04:08:46.830Z,1.00
2024-04-09T04:11:17.095Z,1.00
2024-04-09T04:13:46.913Z,1.10
2024-04-09T04:16:17.273Z,0.90
2024-04-09T04:18:48.784Z,0.90
2024-04-09T04:21:22.340Z,0.70
2024-04-09T04:23:55.182Z,0.90
2024-04-09T04:26:26.392Z,1.10
2024-04-09T04:28:56.728Z,1.20
2024-04-09T04:31:26.998Z,0.80
2024-04-09T04:33:56.802Z,1.00
2024-04-09T04:36:27.486Z,1.10
2024-04-09T04:38:57.063Z,1.30
2024-04-09T04:41:29.057Z,0.80
2024-04-09T04:43:58.672Z,0.80
2024-04-09T04:46:28.612Z,1.10
2024-04-09T04:49:00.761Z,0.90
2024-04-09T04:51:30.392Z,1.40
2024-04-09T04:53:59.987Z,1.10
2024-04-09T04:56:31.296Z,1.10
2024-04-09T04:59:02.921Z,1.10
2024-04-09T05:01:32.708Z,1.20
2024-04-09T05:04:02.426Z,1.30
2024-04-09T05:06:32.224Z,0.90
2024-04-09T05:09:01.827Z,0.90
2024-04-09T05:11:31.404Z,1.20
2024-04-09T05:14:00.986Z,1.20
2024-04-09T05:16:33.325Z,1.30
2024-04-09T05:19:04.621Z,1.40
2024-04-09T05:21:34.281Z,1.20
2024-04-09T05:24:04.018Z,1.00
2024-04-09T05:26:34.799Z,0.90
2024-04-09T05:29:06.482Z,1.40
2024-04-09T05:31:36.045Z,1.20
2024-04-09T05:34:05.619Z,1.30
2024-04-09T05:36:39.026Z,1.80
2024-04-09T05:39:11.861Z,1.10
2024-04-09T05:41:41.401Z,1.30
2024-04-09T05:44:10.860Z,0.70
2024-04-09T05:46:42.821Z,1.30
2024-04-09T05:49:12.479Z,1.20
2024-04-09T05:51:42.202Z,1.30
2024-04-09T05:54:14.126Z,1.00
2024-04-09T05:56:43.593Z,1.30
2024-04-09T05:59:13.522Z,0.90
2024-04-09T06:01:43.144Z,1.00
2024-04-09T06:04:16.708Z,0.80
2024-04-09T06:06:47.253Z,1.20
2024-04-09T06:09:16.993Z,1.50
2024-04-09T06:11:46.542Z,1.30
2024-04-09T06:14:17.347Z,1.00
2024-04-09T06:16:48.956Z,1.00
2024-04-09T06:19:21.874Z,1.40
2024-04-09T06:21:51.614Z,1.00
2024-04-09T06:24:21.220Z,1.10
2024-04-09T06:26:52.919Z,1.30
2024-04-09T06:29:22.786Z,0.90
2024-04-09T06:31:52.525Z,1.40
2024-04-09T06:34:24.710Z,1.30
2024-04-09T06:36:54.599Z,1.20
2024-04-09T06:39:25.996Z,1.30
2024-04-09T06:42:00.860Z,0.80
2024-04-09T06:44:33.185Z,1.00
2024-04-09T06:47:02.845Z,1.10
2024-04-09T06:49:32.772Z,1.10
2024-04-09T06:52:02.662Z,1.40
2024-04-09T06:54:32.493Z,1.80
2024-04-09T06:57:04.815Z,2.00
2024-04-09T07:02:05.185Z,1.10
2024-04-09T07:04:34.908Z,1.20
2024-04-09T07:07:05.100Z,0.80
2024-04-09T07:09:34.858Z,1.20
2024-04-09T07:12:05.041Z,0.80
2024-04-09T07:14:35.173Z,1.00
2024-04-09T07:17:05.444Z,1.30
2024-04-09T07:19:35.195Z,1.30
2024-04-09T07:22:04.774Z,1.30
2024-04-09T07:24:36.927Z,1.10
2024-04-09T07:27:07.642Z,1.50
2024-04-09T07:29:37.282Z,2.60
2024-04-09T07:32:08.721Z,5.90
2024-04-09T07:34:38.210Z,1.40
2024-04-09T07:37:07.777Z,1.40
2024-04-09T07:39:38.103Z,0.90
2024-04-09T07:42:08.925Z,1.00
2024-04-09T07:44:40.906Z,1.50
2024-04-09T07:47:12.860Z,1.20
2024-04-09T07:49:42.537Z,1.00
2024-04-09T07:52:12.081Z,1.00
2024-04-09T07:54:41.622Z,1.00
2024-04-09T07:57:15.674Z,1.40
2024-04-09T07:59:48.159Z,0.90
2024-04-09T08:02:17.650Z,1.00
2024-04-09T08:04:49.518Z,1.40
2024-04-09T08:07:19.166Z,0.80
2024-04-09T08:09:51.976Z,1.20
2024-04-09T08:12:22.030Z,1.20
2024-04-09T08:14:52.651Z,1.40
2024-04-09T08:17:22.329Z,1.00
2024-04-09T08:19:51.970Z,1.00
2024-04-09T08:22:21.698Z,1.40
2024-04-09T08:24:51.448Z,1.00
2024-04-09T08:27:21.466Z,1.10
2024-04-09T08:29:51.210Z,1.10
2024-04-09T08:32:23.277Z,1.60
2024-04-09T08:34:53.514Z,1.30
2024-04-09T08:37:24.094Z,0.90
2024-04-09T08:39:57.098Z,1.00
2024-04-09T08:42:29.850Z,1.70
2024-04-09T08:45:01.098Z,0.90
2024-04-09T08:47:31.669Z,1.00
2024-04-09T08:50:07.170Z,0.60
2024-04-09T08:55:09.622Z,0.80
2024-04-09T08:57:40.134Z,0.70
2024-04-09T09:00:11.403Z,1.10
2024-04-09T09:02:41.409Z,0.90
2024-04-09T09:05:19.879Z,1.10
2024-04-09T09:08:04.172Z,0.90
2024-04-09T09:10:36.264Z,1.10
2024-04-09T09:13:07.045Z,0.90
2024-04-09T09:15:37.026Z,1.20
2024-04-09T09:18:07.489Z,1.40
2024-04-09T09:20:39.621Z,1.20
2024-04-09T09:23:20.116Z,1.00
2024-04-09T09:25:53.833Z,1.00
2024-04-09T09:28:28.918Z,1.30
2024-04-09T09:31:00.866Z,1.60
2024-04-09T09:33:35.047Z,1.20
2024-04-09T09:36:05.810Z,1.40
2024-04-09T09:38:38.429Z,0.80
2024-04-09T09:41:09.953Z,1.30
2024-04-09T09:43:40.286Z,1.00
2024-04-09T09:46:13.178Z,1.60
2024-04-09T09:48:43.632Z,0.80
2024-04-09T09:51:13.724Z,1.10
2024-04-09T09:53:43.685Z,0.80
2024-04-09T09:56:14.764Z,0.90
2024-04-09T09:58:45.166Z,0.80
2024-04-09T10:01:15.321Z,1.10
2024-04-09T10:03:46.262Z,1.60
2024-04-09T10:06:16.846Z,1.00
2024-04-09T10:08:48.348Z,0.90
2024-04-09T10:11:23.023Z,1.30
2024-04-09T10:13:54.900Z,0.90
2024-04-09T10:16:27.196Z,0.70
2024-04-09T10:19:01.270Z,0.80
2024-04-09T10:21:37.137Z,0.80
2024-04-09T10:24:09.315Z,1.10
2024-04-09T10:26:45.617Z,1.20
2024-04-09T10:29:25.404Z,1.10
2024-04-09T10:31:57.366Z,0.90
2024-04-09T10:34:29.107Z,1.00
2024-04-09T10:37:03.546Z,1.00
2024-04-09T10:39:36.834Z,0.90
2024-04-09T10:42:08.795Z,0.80
2024-04-09T10:44:40.616Z,0.90
2024-04-09T10:47:10.947Z,1.10
2024-04-09T10:49:43.831Z,1.10
2024-04-09T10:52:15.008Z,1.50
2024-04-09T10:54:44.599Z,1.10
2024-04-09T10:57:14.268Z,1.00
2024-04-09T10:59:43.844Z,1.00
2024-04-09T11:02:15.136Z,1.30
2024-04-09T11:04:47.277Z,0.70
2024-04-09T11:07:17.097Z,1.30
2024-04-09T11:09:46.863Z,1.10
2024-04-09T11:12:17.570Z,1.30
2024-04-09T11:14:47.480Z,1.20
2024-04-09T11:17:19.796Z,0.70
2024-04-09T11:19:50.672Z,1.10
2024-04-09T11:22:20.778Z,1.40
2024-04-09T11:24:50.273Z,0.80
2024-04-09T11:27:20.067Z,1.30
2024-04-09T11:29:55.128Z,0.70
2024-04-09T11:32:24.766Z,1.20
2024-04-09T11:34:55.645Z,0.90
2024-04-09T11:37:27.895Z,0.80
2024-04-09T11:42:31.766Z,1.30
2024-04-09T11:45:02.953Z,0.90
2024-04-09T11:47:32.970Z,1.40
2024-04-09T11:50:05.419Z,0.90
2024-04-09T11:52:40.017Z,0.80
2024-04-09T11:55:10.951Z,1.10
2024-04-09T11:57:45.768Z,0.80
2024-04-09T12:00:15.899Z,0.80
2024-04-09T12:02:46.592Z,0.90
2024-04-09T12:05:19.079Z,1.10
2024-04-09T12:07:51.399Z,0.90
2024-04-09T12:10:22.548Z,1.00
2024-04-09T12:12:53.516Z,1.40
2024-04-09T12:15:23.606Z,1.10
2024-04-09T12:17:53.743Z,0.80
2024-04-09T12:20:23.353Z,1.30
2024-04-09T12:22:53.227Z,0.60
2024-04-09T12:25:22.897Z,0.70
2024-04-09T12:27:52.517Z,0.90
2024-04-09T12:30:23.500Z,0.50
2024-04-09T12:33:13.444Z,0.70
2024-04-09T12:35:43.782Z,0.60
2024-04-09T12:38:13.691Z,0.90
2024-04-09T12:40:45.765Z,1.10
2024-04-09T12:43:16.249Z,0.80
2024-04-09T12:45:46.179Z,1.50
2024-04-09T12:48:16.731Z,1.50
2024-04-09T12:50:46.726Z,0.90
2024-04-09T12:53:16.611Z,1.00
2024-04-09T12:55:47.438Z,0.90
2024-04-09T12:58:18.502Z,1.00
2024-04-09T13:01:02.041Z,0.90
2024-04-09T13:03:38.649Z,0.80
2024-04-09T13:06:09.073Z,0.80
2024-04-09T13:08:41.553Z,0.70
2024-04-09T13:11:11.301Z,1.00
2024-04-09T13:13:41.198Z,1.40
2024-04-09T13:18:48.257Z,1.20
2024-04-09T13:21:18.025Z,1.40
2024-04-09T13:23:47.805Z,1.00
2024-04-09T13:26:17.865Z,0.90
2024-04-09T13:28:48.199Z,0.90
2024-04-09T13:31:21.645Z,0.80
2024-04-09T13:33:51.272Z,0.70
2024-04-09T13:36:23.665Z,1.00
2024-04-09T13:38:53.557Z,1.20
2024-04-09T13:41:25.482Z,0.70
2024-04-09T13:43:55.518Z,0.80
2024-04-09T13:46:25.679Z,1.10
2024-04-09T13:48:56.348Z,0.90
2024-04-09T13:51:26.055Z,0.70
2024-04-09T13:53:55.851Z,0.70
2024-04-09T13:56:25.514Z,0.80
2024-04-09T13:58:59.221Z,0.70
2024-04-09T14:01:28.963Z,0.90
2024-04-09T14:04:02.465Z,0.70
2024-04-09T14:06:35.594Z,0.70
2024-04-09T14:09:05.208Z,0.70
2024-04-09T14:11:34.980Z,0.60
2024-04-09T14:14:04.736Z,0.70
2024-04-09T14:16:36.452Z,0.50
2024-04-09T14:19:10.903Z,0.80
2024-04-09T14:24:11.824Z,0.40
2024-04-09T14:26:41.976Z,0.80
2024-04-09T14:29:12.205Z,0.80
2024-04-09T14:31:44.203Z,0.60
2024-04-09T14:34:14.004Z,0.50
2024-04-09T14:36:43.659Z,0.80
2024-04-09T14:39:15.523Z,0.60
2024-04-09T14:41:45.444Z,0.60
2024-04-09T14:44:15.378Z,0.80
2024-04-09T14:46:47.261Z,0.80
2024-04-09T14:49:17.193Z,0.80
2024-04-09T14:51:46.810Z,0.50
2024-04-09T14:54:16.496Z,0.80
2024-04-09T14:56:46.241Z,0.80
2024-04-09T14:59:15.980Z,0.70
2024-04-09T15:01:45.965Z,0.60
2024-04-09T15:04:18.354Z,0.60
2024-04-09T15:06:48.140Z,0.50
2024-04-09T15:09:20.013Z,0.90
2024-04-09T15:11:49.630Z,1.00
2024-04-09T15:14:19.393Z,1.00
2024-04-09T15:16:53.870Z,1.50
2024-04-09T15:19:25.724Z,1.20
2024-04-09T15:21:55.546Z,0.90
2024-04-09T15:24:25.493Z,1.00
2024-04-09T15:26:58.974Z,0.90
2024-04-09T15:29:30.190Z,1.00
2024-04-09T15:32:00.098Z,1.00
2024-04-09T15:34:29.978Z,0.80
2024-04-09T15:36:59.551Z,0.80
2024-04-09T15:39:30.561Z,0.90
2024-04-09T15:42:00.349Z,1.20
2024-04-09T15:44:32.651Z,0.70
2024-04-09T15:47:02.638Z,1.00
2024-04-09T15:49:34.703Z,0.90
2024-04-09T15:52:05.077Z,1.50
2024-04-09T15:54:36.762Z,1.00
2024-04-09T15:57:08.448Z,1.00
2024-04-09T15:59:38.124Z,1.20
2024-04-09T16:02:07.839Z,1.10
2024-04-09T16:04:37.557Z,1.30
2024-04-09T16:07:07.634Z,1.30
2024-04-09T16:09:37.138Z,1.70
2024-04-09T16:12:07.924Z,1.50
2024-04-09T16:14:43.692Z,1.50
2024-04-09T16:17:14.473Z,1.00
2024-04-09T16:19:46.795Z,1.00
2024-04-09T16:22:16.360Z,1.00
2024-04-09T16:24:45.911Z,0.90
2024-04-09T16:27:18.049Z,1.10
2024-04-09T16:29:50.603Z,1.10
2024-04-09T16:32:22.446Z,1.40
2024-04-09T16:34:52.471Z,1.90
2024-04-09T16:37:23.020Z,1.70
2024-04-09T16:39:54.718Z,1.40
2024-04-09T16:42:24.343Z,1.60
2024-04-09T16:44:53.791Z,1.70
2024-04-09T16:47:23.422Z,1.60
2024-04-09T16:49:53.111Z,1.60
2024-04-09T16:52:22.786Z,1.40
2024-04-09T16:54:52.309Z,1.40
2024-04-09T16:57:32.797Z,1.80
2024-04-09T17:00:12.100Z,1.70
2024-04-09T17:02:41.840Z,1.90
2024-04-09T17:05:11.989Z,1.20
2024-04-09T17:07:41.919Z,1.60
2024-04-09T17:10:16.627Z,1.50
2024-04-09T17:12:46.095Z,1.70
2024-04-09T17:15:16.194Z,2.30
2024-04-09T17:17:48.564Z,1.70
2024-04-09T17:20:18.514Z,1.30
2024-04-09T17:22:48.185Z,1.30
2024-04-09T17:25:20.404Z,1.60
2024-04-09T17:27:51.936Z,2.40
2024-04-09T17:30:23.839Z,1.60
2024-04-09T17:32:53.501Z,2.50
2024-04-09T17:35:23.410Z,2.00
2024-04-09T17:37:53.030Z,1.60
2024-04-09T17:40:24.924Z,1.80
2024-04-09T17:42:59.910Z,2.30
2024-04-09T17:45:29.488Z,1.50
2024-04-09T17:48:00.198Z,2.10
2024-04-09T17:50:35.359Z,2.20
2024-04-09T17:53:07.661Z,1.90
2024-04-09T17:55:37.329Z,1.80
2024-04-09T17:58:09.130Z,1.60
2024-04-09T18:00:38.956Z,1.80
2024-04-09T18:03:10.667Z,2.10
2024-04-09T18:05:42.923Z,1.90
2024-04-09T18:08:14.319Z,2.30
2024-04-09T18:10:48.292Z,2.40
2024-04-09T18:13:20.459Z,1.80
2024-04-09T18:15:50.495Z,2.20
2024-04-09T18:18:20.177Z,2.10
2024-04-09T18:20:50.849Z,2.10
2024-04-09T18:23:22.908Z,2.00
2024-04-09T18:26:06.437Z,1.70
2024-04-09T18:28:38.062Z,1.70
2024-04-09T18:31:07.574Z,1.90
2024-04-09T18:33:37.526Z,1.70
2024-04-09T18:36:08.436Z,2.00
2024-04-09T18:38:40.876Z,2.20
2024-04-09T18:41:11.765Z,2.20
2024-04-09T18:43:42.565Z,2.10
2024-04-09T18:46:12.209Z,2.20
2024-04-09T18:48:44.252Z,2.30
2024-04-09T18:51:17.200Z,2.30
2024-04-09T18:53:46.968Z,2.80
2024-04-09T18:56:16.520Z,2.30
2024-04-09T18:58:50.366Z,2.30
2024-04-09T19:01:20.007Z,2.40
2024-04-09T19:03:52.027Z,2.10
2024-04-09T19:06:22.097Z,2.00
2024-04-09T19:08:53.633Z,2.10
2024-04-09T19:11:28.277Z,2.00
2024-04-09T19:14:03.174Z,2.10
2024-04-09T19:16:33.026Z,1.90
2024-04-09T19:19:02.709Z,2.30
2024-04-09T19:21:34.244Z,1.60
2024-04-09T19:24:07.031Z,2.90
2024-04-09T19:26:36.645Z,2.70
2024-04-09T19:29:08.381Z,2.60
2024-04-09T19:31:38.025Z,2.30
2024-04-09T19:34:10.787Z,2.40
2024-04-09T19:36:42.890Z,2.70
2024-04-09T19:39:12.406Z,2.60
2024-04-09T19:41:42.084Z,2.60
2024-04-09T19:44:18.037Z,2.50
2024-04-09T19:46:51.251Z,2.20
2024-04-09T19:49:22.890Z,2.20
2024-04-09T19:51:52.491Z,1.50
2024-04-09T19:54:22.228Z,2.20
2024-04-09T19:56:51.980Z,2.20
2024-04-09T19:59:23.168Z,2.70
2024-04-09T20:01:52.744Z,3.00
2024-04-09T20:04:25.259Z,2.60
2024-04-09T20:06:57.939Z,2.20
2024-04-09T20:09:27.497Z,2.20
2024-04-09T20:11:57.255Z,2.10
2024-04-09T20:14:28.253Z,2.40
2024-04-09T20:16:58.487Z,2.30
2024-04-09T20:19:30.377Z,2.70
2024-04-09T20:21:59.931Z,2.20
2024-04-09T20:24:29.435Z,2.00
2024-04-09T20:26:58.949Z,2.20
2024-04-09T20:29:28.536Z,1.90
2024-04-09T20:31:58.392Z,2.70
2024-04-09T20:34:28.163Z,2.20
2024-04-09T20:37:01.552Z,2.40
2024-04-09T20:39:31.080Z,2.30
2024-04-09T20:42:00.691Z,2.20
2024-04-09T20:44:33.518Z,2.70
2024-04-09T20:47:03.159Z,2.80
2024-04-09T20:49:32.895Z,2.50
2024-04-09T20:52:02.458Z,2.40
2024-04-09T20:54:32.080Z,2.20
2024-04-09T20:57:01.716Z,2.00
2024-04-09T20:59:31.992Z,1.50
2024-04-09T21:02:04.091Z,2.50
2024-04-09T21:04:33.867Z,2.50
2024-04-09T21:07:06.390Z,2.20
2024-04-09T21:09:36.235Z,1.80
2024-04-09T21:12:07.895Z,2.00
2024-04-09T21:14:37.795Z,2.00
2024-04-09T21:17:07.648Z,2.20
2024-04-09T21:19:39.549Z,1.90
2024-04-09T21:22:09.083Z,2.10
2024-04-09T21:24:41.077Z,2.40
2024-04-09T21:27:10.824Z,2.30
2024-04-09T21:29:41.910Z,2.30
2024-04-09T21:32:14.092Z,2.20
2024-04-09T21:34:43.777Z,2.40
2024-04-09T21:37:13.395Z,2.70
2024-04-09T21:39:45.007Z,2.10
2024-04-09T21:42:16.730Z,1.90
2024-04-09T21:44:48.741Z,1.60
2024-04-09T21:47:21.150Z,2.10
2024-04-09T21:49:50.904Z,2.80
2024-04-09T21:52:20.532Z,1.70
2024-04-09T21:54:50.948Z,2.40
2024-04-09T21:57:23.742Z,2.90
2024-04-09T21:59:53.897Z,2.30
2024-04-09T22:02:23.602Z,2.30
2024-04-09T22:04:55.747Z,3.00
2024-04-09T22:07:27.456Z,2.70
2024-04-09T22:09:59.003Z,2.00
2024-04-09T22:12:31.059Z,2.20
2024-04-09T22:15:00.541Z,2.70
2024-04-09T22:17:30.536Z,2.00
2024-04-09T22:20:00.572Z,2.50
2024-04-09T22:22:30.119Z,2.10
2024-04-09T22:24:59.498Z,3.30
2024-04-09T22:27:28.947Z,2.40
2024-04-09T22:29:58.580Z,2.30
2024-04-09T22:32:31.066Z,2.00
2024-04-09T22:35:00.883Z,2.30
2024-04-09T22:37:32.965Z,2.90
2024-04-09T22:40:02.497Z,2.30
2024-04-09T22:42:35.435Z,1.60
2024-04-09T22:45:06.427Z,1.80
2024-04-09T22:47:36.264Z,2.10
2024-04-09T22:50:07.617Z,2.10
2024-04-09T22:52:37.325Z,2.00
2024-04-09T22:55:10.139Z,2.10
2024-04-09T22:57:39.631Z,2.20
2024-04-09T23:00:13.220Z,2.10
2024-04-09T23:02:43.110Z,2.20
2024-04-09T23:05:15.397Z,2.80
2024-04-09T23:07:44.905Z,2.10
2024-04-09T23:10:14.811Z,1.80
2024-04-09T23:12:44.285Z,3.00
2024-04-09T23:15:14.046Z,2.00
2024-04-09T23:17:43.808Z,1.90
2024-04-09T23:20:13.427Z,2.10
2024-04-09T23:22:43.487Z,2.80
2024-04-09T23:25:15.231Z,2.50
2024-04-09T23:27:44.692Z,2.40
2024-04-09T23:30:15.772Z,2.40
2024-04-09T23:32:45.747Z,2.30
2024-04-09T23:35:17.687Z,1.70
2024-04-09T23:37:47.654Z,2.30
2024-04-09T23:40:17.451Z,1.70
2024-04-09T23:42:49.456Z,2.50
2024-04-09T23:45:18.959Z,1.80
2024-04-09T23:47:50.998Z,2.50
2024-04-09T23:50:21.197Z,2.20
2024-04-09T23:52:51.267Z,2.40
2024-04-09T23:55:21.280Z,2.60
2024-04-09T23:57:50.747Z,1.80
